< < Back
Terminal Aerodrome Forecast


Current Version              Previous Versions:   1  2  3  4  5  6  7  8  9  

Terminal Aerodrome Forecast

038
FTUS42 KTAE 280541
TAFDHN
TAF
KDHN 280541Z 2806/2906 04003KT P6SM SCT250
     FM281100 07004KT P6SM BKN010
     FM281500 09009KT P6SM SCT050=

Latest METAR

659
SAUS70 KWBC 280800 RRJ
MTRDHN
METAR KDHN 280753Z AUTO 07004KT 10SM CLR 24/23 A3006 RMK AO2 SLP171
T02390228


USA.gov is the U.S. government's official web portal to all federal, state and local government web resources and services.